Time;durP1;ratioP1;P1;durP2;ratioP2;P2;SDS_P1;SDS_P2;PMS_P1;PMS_P2;Temp;Humidity;BMP_temperature;BMP_pressure;BME280_temperature;BME280_humidity;BME280_pressure;Samples;Min_cycle;Max_cycle;Signal;HPM_P1;HPM_P2
2023/12/18 00:01:06;;;;;;;;;28.50;25.00;;;;;7.13;82.25;103185.88;5042179;28;46639;-70
2023/12/18 00:03:31;;;;;;;;;32.75;27.00;;;;;7.32;82.13;103221.72;5025163;28;45336;-70
2023/12/18 00:05:57;;;;;;;;;29.00;26.75;;;;;7.30;82.05;103228.75;5054160;28;45349;-70
2023/12/18 00:08:22;;;;;;;;;27.00;24.75;;;;;7.25;81.66;103214.47;5048867;28;45348;-70
2023/12/18 00:10:47;;;;;;;;;30.75;25.25;;;;;7.16;81.79;103203.66;5041783;28;45587;-70
2023/12/18 00:13:13;;;;;;;;;21.25;17.50;;;;;7.17;81.71;103208.13;5024875;28;55779;-70
2023/12/18 00:15:38;;;;;;;;;26.75;25.00;;;;;7.17;82.31;103198.38;5024886;28;45392;-70
2023/12/18 00:18:04;;;;;;;;;27.25;21.25;;;;;7.36;82.38;103235.94;5056010;28;45547;-70
2023/12/18 00:20:29;;;;;;;;;31.50;25.75;;;;;7.24;82.13;103208.25;5043537;28;46363;-70
2023/12/18 00:22:55;;;;;;;;;25.75;24.25;;;;;7.29;82.14;103218.97;5040371;28;45497;-70
2023/12/18 00:25:20;;;;;;;;;30.25;25.25;;;;;7.14;82.08;103198.31;5023415;28;45747;-70
2023/12/18 00:27:45;;;;;;;;;27.00;22.00;;;;;7.13;82.28;103177.00;5051658;28;45597;-70
2023/12/18 00:30:11;;;;;;;;;26.75;22.00;;;;;7.38;81.82;103219.19;5041798;28;47045;-70
2023/12/18 00:32:36;;;;;;;;;30.00;24.25;;;;;7.30;82.03;103207.50;5053527;28;46304;-70
2023/12/18 00:35:02;;;;;;;;;34.00;25.25;;;;;7.41;82.36;103215.69;5043106;28;45521;-70
2023/12/18 00:37:27;;;;;;;;;23.25;21.75;;;;;7.19;82.34;103171.84;5046695;28;45451;-70
2023/12/18 00:39:53;;;;;;;;;17.75;16.25;;;;;7.32;82.23;103194.25;5048528;28;45460;-70
2023/12/18 00:42:18;;;;;;;;;26.00;22.00;;;;;7.22;81.66;103179.88;5052831;28;45430;-70
2023/12/18 00:44:43;;;;;;;;;24.00;22.25;;;;;7.41;81.89;103210.38;5038841;28;45695;-70
2023/12/18 00:47:09;;;;;;;;;28.25;22.75;;;;;7.44;81.93;103212.22;5053096;28;45425;-70
2023/12/18 00:49:34;;;;;;;;;21.75;20.00;;;;;7.44;82.14;103217.53;5056260;28;45846;-70
2023/12/18 00:52:00;;;;;;;;;29.75;24.75;;;;;7.34;82.32;103204.03;5041412;28;45407;-70
2023/12/18 00:54:25;;;;;;;;;30.75;24.50;;;;;7.39;82.21;103213.00;5041425;28;45407;-70
2023/12/18 00:56:50;;;;;;;;;26.00;23.25;;;;;7.35;82.16;103205.84;5024322;28;45582;-70
2023/12/18 00:59:16;;;;;;;;;24.25;21.00;;;;;7.14;82.05;103166.44;5083642;27;45436;-70
2023/12/18 01:01:42;;;;;;;;;25.50;22.25;;;;;7.09;82.20;103164.56;5090310;27;45307;-70
2023/12/18 01:04:07;;;;;;;;;25.00;24.75;;;;;7.10;82.27;103167.25;5095059;27;45382;-70
2023/12/18 01:06:33;;;;;;;;;21.25;18.25;;;;;7.02;82.15;103145.81;5080712;27;45296;-70
2023/12/18 01:08:58;;;;;;;;;30.00;26.00;;;;;7.17;82.60;103173.56;5085690;27;45423;-70
2023/12/18 01:11:23;;;;;;;;;27.00;22.50;;;;;7.10;82.43;103151.31;5089413;27;45315;-70
2023/12/18 01:13:49;;;;;;;;;25.75;23.50;;;;;7.12;82.15;103151.34;5093707;27;45362;-70
2023/12/18 01:16:14;;;;;;;;;26.25;20.25;;;;;7.18;82.77;103160.34;5084846;27;45289;-70
2023/12/18 01:18:39;;;;;;;;;28.75;25.75;;;;;7.04;82.51;103133.47;5088068;27;46219;-70
2023/12/18 01:21:05;;;;;;;;;30.25;22.75;;;;;7.14;82.26;103147.84;5091827;27;45323;-70
2023/12/18 01:23:30;;;;;;;;;28.75;25.25;;;;;7.14;82.74;103145.19;5095069;27;45605;-70
2023/12/18 01:25:55;;;;;;;;;22.50;19.75;;;;;7.26;81.91;103165.78;5085883;27;45389;-70
2023/12/18 01:28:20;;;;;;;;;29.00;20.75;;;;;6.98;81.81;103128.06;5083303;27;49650;-70
2023/12/18 01:30:46;;;;;;;;;31.00;25.50;;;;;6.94;82.36;103135.91;5073540;28;45813;-70
2023/12/18 01:33:11;;;;;;;;;25.75;22.75;;;;;6.95;82.28;103138.59;5073900;27;45409;-70
2023/12/18 01:35:36;;;;;;;;;26.25;23.00;;;;;7.10;82.65;103164.59;5087552;27;46592;-70
2023/12/18 01:38:02;;;;;;;;;27.25;19.75;;;;;7.01;82.65;103161.72;5064773;27;53536;-70
2023/12/18 01:40:28;;;;;;;;;24.00;22.00;;;;;6.92;82.42;103138.53;5092393;27;45423;-70
2023/12/18 01:42:53;;;;;;;;;32.25;25.25;;;;;7.07;82.60;103168.91;5094467;27;45529;-70
2023/12/18 01:45:18;;;;;;;;;23.75;19.25;;;;;7.07;83.01;103166.25;5071986;27;45957;-70
2023/12/18 01:47:44;;;;;;;;;26.00;22.00;;;;;7.00;82.44;103158.19;5081346;27;45477;-70
2023/12/18 01:50:10;;;;;;;;;23.50;19.50;;;;;6.97;82.30;103152.81;5078792;27;45441;-70
2023/12/18 01:52:37;;;;;;;;;21.00;15.00;;;;;6.98;81.94;103148.38;5080066;27;45314;-70
2023/12/18 01:55:04;;;;;;;;;19.50;17.00;;;;;7.03;82.16;103163.56;5090748;27;45483;-70
2023/12/18 01:57:31;;;;;;;;;25.75;21.00;;;;;6.96;81.77;103143.03;5080042;27;46610;-70
2023/12/18 01:59:57;;;;;;;;;24.50;21.00;;;;;7.02;81.72;103144.94;5090900;27;45464;-70
2023/12/18 02:02:22;;;;;;;;;16.00;16.00;;;;;7.07;81.51;103151.25;5090422;27;45483;-70
2023/12/18 02:04:48;;;;;;;;;21.25;21.00;;;;;7.19;82.08;103169.19;5080410;28;45427;-70
2023/12/18 02:07:13;;;;;;;;;17.00;16.00;;;;;7.03;81.34;103142.31;5079552;27;45508;-70
2023/12/18 02:09:41;;;;;;;;;18.25;18.25;;;;;7.10;81.19;103158.34;5090794;27;45381;-70
2023/12/18 02:12:06;;;;;;;;;23.00;17.00;;;;;7.23;81.49;103177.25;5087215;27;45323;-70
2023/12/18 02:14:32;;;;;;;;;24.00;20.50;;;;;7.12;81.08;103168.16;5088306;27;45290;-70
2023/12/18 02:16:57;;;;;;;;;19.25;19.00;;;;;7.13;80.69;103177.00;5079084;27;46508;-70
2023/12/18 02:19:28;;;;;;;;;19.50;19.50;;;;;7.13;80.74;103177.91;5089389;27;45475;-70
2023/12/18 02:21:55;;;;;;;;;19.00;16.00;;;;;6.97;80.89;103158.09;5066514;27;45583;-70
2023/12/18 02:24:20;;;;;;;;;18.75;16.00;;;;;7.00;80.77;103162.56;5098994;27;45539;-70
2023/12/18 02:26:46;;;;;;;;;16.00;16.00;;;;;7.11;80.59;103192.91;5082924;27;46330;-70
2023/12/18 02:29:11;;;;;;;;;20.00;20.00;;;;;7.11;80.86;103184.94;5090122;27;45329;-70
2023/12/18 02:31:37;;;;;;;;;20.50;17.50;;;;;6.97;80.82;103163.41;5083826;27;45417;-70
2023/12/18 02:34:03;;;;;;;;;18.25;16.25;;;;;6.89;81.30;103148.19;5080371;27;45403;-70
2023/12/18 02:36:29;;;;;;;;;19.75;16.25;;;;;7.10;80.91;103185.84;5087964;27;45323;-70
2023/12/18 02:38:54;;;;;;;;;19.25;15.00;;;;;6.92;80.51;103150.91;5086134;27;45419;-70
2023/12/18 02:41:19;;;;;;;;;18.50;16.75;;;;;6.78;80.50;103146.22;5082827;27;46049;-70
2023/12/18 02:43:45;;;;;;;;;16.00;15.00;;;;;6.81;80.77;103151.56;5090771;27;45493;-70
2023/12/18 02:46:10;;;;;;;;;26.00;20.00;;;;;6.83;80.75;103143.63;5090142;27;45432;-70
2023/12/18 02:48:35;;;;;;;;;18.75;17.50;;;;;6.77;80.91;103141.75;5079846;28;45373;-70
2023/12/18 02:51:02;;;;;;;;;19.25;14.75;;;;;6.75;80.92;103135.53;5093552;27;45396;-70
2023/12/18 02:53:28;;;;;;;;;18.25;17.00;;;;;6.78;80.83;103135.59;5079389;27;45409;-70
2023/12/18 02:55:53;;;;;;;;;15.50;12.25;;;;;6.98;81.18;103173.19;5060948;27;46195;-70
2023/12/18 02:58:21;;;;;;;;;17.75;15.50;;;;;6.84;81.00;103150.75;5072908;28;45473;-70
2023/12/18 03:00:47;;;;;;;;;12.75;12.25;;;;;6.91;80.67;103171.25;5075066;28;45414;-70
2023/12/18 03:03:12;;;;;;;;;19.25;16.00;;;;;6.73;81.09;103139.00;5079834;28;45296;-70
2023/12/18 03:05:38;;;;;;;;;24.75;16.00;;;;;6.86;80.69;103162.28;5079096;27;45522;-70
2023/12/18 03:08:03;;;;;;;;;18.25;16.75;;;;;6.69;80.91;103130.06;5076840;28;45297;-70
2023/12/18 03:10:29;;;;;;;;;17.25;16.75;;;;;6.96;80.89;103172.25;5079547;27;45343;-70
2023/12/18 03:12:55;;;;;;;;;18.50;16.75;;;;;6.84;80.48;103154.28;5088133;27;45436;-70
2023/12/18 03:15:20;;;;;;;;;18.50;14.50;;;;;6.90;80.93;103166.81;5078993;28;45550;-70
2023/12/18 03:17:46;;;;;;;;;18.00;15.25;;;;;6.92;80.78;103174.81;5082896;27;45344;-70
2023/12/18 03:20:12;;;;;;;;;19.50;15.75;;;;;6.72;80.65;103145.19;5079297;28;45406;-70
2023/12/18 03:22:37;;;;;;;;;11.50;10.50;;;;;6.70;80.75;103134.53;5079348;27;45467;-70
2023/12/18 03:25:03;;;;;;;;;19.25;16.00;;;;;6.68;80.81;103145.09;5079205;28;45430;-70
2023/12/18 03:27:29;;;;;;;;;19.50;16.75;;;;;6.73;80.88;103136.34;5078296;27;45487;-70
2023/12/18 03:29:54;;;;;;;;;14.00;13.00;;;;;6.95;80.22;103180.16;5065361;28;45398;-70
2023/12/18 03:32:19;;;;;;;;;14.75;14.75;;;;;6.90;80.48;103168.56;5078118;27;51799;-70
2023/12/18 03:34:44;;;;;;;;;12.50;11.75;;;;;6.78;80.23;103139.97;5078851;28;45576;-70
2023/12/18 03:37:10;;;;;;;;;23.50;15.25;;;;;6.97;79.87;103166.06;5079565;27;47600;-70
2023/12/18 03:39:35;;;;;;;;;12.50;10.50;;;;;6.91;79.80;103157.97;5079231;28;45995;-70
2023/12/18 03:42:01;;;;;;;;;16.00;16.00;;;;;6.73;80.08;103126.59;5079182;27;45586;-70
2023/12/18 03:44:26;;;;;;;;;19.25;15.25;;;;;6.89;79.83;103151.72;5078987;27;45317;-70
2023/12/18 03:46:51;;;;;;;;;17.25;15.25;;;;;6.82;79.92;103139.19;5083640;27;45370;-70
2023/12/18 03:49:17;;;;;;;;;14.00;11.00;;;;;6.97;80.06;103163.41;5077578;28;45316;-70
2023/12/18 03:51:42;;;;;;;;;16.50;14.00;;;;;7.00;79.80;103160.84;5072497;28;45440;-70
2023/12/18 03:54:07;;;;;;;;;16.50;15.25;;;;;6.81;79.42;103135.63;5078726;28;45428;-70
2023/12/18 03:56:33;;;;;;;;;15.75;14.00;;;;;6.86;79.82;103151.66;5077518;28;52057;-69
2023/12/18 03:58:58;;;;;;;;;15.00;15.00;;;;;6.74;79.64;103139.03;5083142;27;45320;-69
2023/12/18 04:01:24;;;;;;;;;16.75;15.75;;;;;6.91;79.76;103175.66;5090604;27;45307;-70
2023/12/18 04:03:49;;;;;;;;;17.25;12.25;;;;;6.82;79.83;103179.91;5092664;27;45437;-70
2023/12/18 04:06:14;;;;;;;;;15.25;10.50;;;;;6.78;79.48;103171.84;5081537;27;45276;-70
2023/12/18 04:08:39;;;;;;;;;13.25;11.75;;;;;6.55;79.74;103135.06;5092600;27;45234;-70
2023/12/18 04:11:13;;;;;;;;;19.50;17.25;;;;;6.58;79.81;103159.03;5068155;27;45357;-70
2023/12/18 04:13:39;;;;;;;;;18.75;15.00;;;;;6.51;79.44;103138.50;5064224;28;47053;-70
2023/12/18 04:16:05;;;;;;;;;16.00;15.00;;;;;6.48;79.66;103133.13;5084986;27;45512;-70
2023/12/18 04:18:30;;;;;;;;;6.50;3.50;;;;;6.70;79.84;103176.06;5080430;27;45498;-70
2023/12/18 04:20:56;;;;;;;;;14.00;12.75;;;;;6.70;80.21;103174.34;5072093;28;45592;-70
2023/12/18 04:23:21;;;;;;;;;13.75;13.75;;;;;6.51;79.82;103134.97;5092089;27;46017;-70
2023/12/18 04:25:46;;;;;;;;;16.00;14.75;;;;;6.53;79.92;103147.38;5068866;27;45438;-70
2023/12/18 04:28:12;;;;;;;;;14.25;14.25;;;;;6.63;80.35;103165.34;5080134;27;45424;-70
2023/12/18 04:30:38;;;;;;;;;19.50;18.00;;;;;6.53;79.84;103155.34;5090399;27;45567;-70
2023/12/18 04:33:04;;;;;;;;;14.50;11.50;;;;;6.54;80.32;103156.25;5077037;27;47552;-70
2023/12/18 04:35:29;;;;;;;;;15.25;14.00;;;;;6.49;79.95;103148.19;5081818;27;45423;-70
2023/12/18 04:37:54;;;;;;;;;16.00;15.00;;;;;6.35;79.76;103131.03;5079507;27;45520;-70
2023/12/18 04:40:19;;;;;;;;;26.00;18.50;;;;;6.35;79.83;103125.75;5071921;28;46919;-70
2023/12/18 04:42:45;;;;;;;;;18.50;14.75;;;;;6.29;80.55;103127.38;5091996;27;45487;-70
2023/12/18 04:45:10;;;;;;;;;18.75;14.75;;;;;6.33;80.69;103130.13;5071311;27;46020;-69
2023/12/18 04:47:36;;;;;;;;;14.50;13.75;;;;;6.44;80.32;103161.34;5065838;27;45446;-70
2023/12/18 04:50:01;;;;;;;;;14.50;12.75;;;;;6.53;80.14;103162.41;5089965;27;45306;-70
2023/12/18 04:52:27;;;;;;;;;17.00;16.25;;;;;6.45;80.47;103147.22;5069660;27;46552;-70
2023/12/18 04:54:53;;;;;;;;;14.50;14.50;;;;;6.41;80.32;103139.16;5090106;27;45252;-70
2023/12/18 04:57:18;;;;;;;;;19.25;13.25;;;;;6.61;80.59;103177.66;5080107;27;45533;-70
2023/12/18 04:59:44;;;;;;;;;17.75;15.00;;;;;6.58;80.16;103172.31;5081675;28;45414;-70
2023/12/18 05:02:09;;;;;;;;;16.75;14.50;;;;;6.47;80.54;103158.78;5074242;27;46238;-69
2023/12/18 05:04:35;;;;;;;;;14.25;14.25;;;;;6.35;79.91;103139.00;5080092;28;45566;-70
2023/12/18 05:07:00;;;;;;;;;16.25;12.75;;;;;6.36;80.58;103146.13;5068194;28;45789;-70
2023/12/18 05:09:25;;;;;;;;;10.25;10.25;;;;;6.49;80.26;103164.13;5081691;27;45489;-70
2023/12/18 05:11:51;;;;;;;;;18.25;14.75;;;;;6.55;80.43;103166.00;5081221;28;45348;-70
2023/12/18 05:14:17;;;;;;;;;13.00;13.00;;;;;6.42;79.75;103138.31;5070618;27;45379;-70
2023/12/18 05:16:42;;;;;;;;;18.25;14.00;;;;;6.34;79.55;103132.81;5062922;28;45347;-70
2023/12/18 05:19:08;;;;;;;;;16.25;14.75;;;;;6.37;79.71;103135.53;5081342;27;45544;-70
2023/12/18 05:21:33;;;;;;;;;14.00;14.00;;;;;6.29;80.00;103119.44;5080975;28;45681;-70
2023/12/18 05:23:58;;;;;;;;;13.75;13.25;;;;;6.48;80.14;103146.38;5080347;28;45421;-69
2023/12/18 05:26:24;;;;;;;;;11.00;11.00;;;;;6.35;79.48;103125.75;5081304;28;45466;-70
2023/12/18 05:28:49;;;;;;;;;15.00;15.00;;;;;6.28;79.84;103104.41;5067841;28;45380;-70
2023/12/18 05:31:16;;;;;;;;;12.50;12.25;;;;;6.50;79.93;103139.38;5080916;27;45346;-70
2023/12/18 05:33:42;;;;;;;;;12.50;11.50;;;;;6.44;79.56;103128.63;5080090;27;45289;-70
2023/12/18 05:36:08;;;;;;;;;17.25;11.50;;;;;6.46;79.60;103129.53;5080367;27;45306;-70
2023/12/18 05:38:33;;;;;;;;;15.50;15.00;;;;;6.57;79.61;103165.19;5081197;27;45346;-70
2023/12/18 05:40:59;;;;;;;;;20.00;15.00;;;;;6.58;79.18;103169.66;5068677;28;48568;-70
2023/12/18 05:43:24;;;;;;;;;13.25;13.25;;;;;6.51;79.38;103166.81;5075647;28;45417;-70
2023/12/18 05:45:49;;;;;;;;;12.50;11.00;;;;;6.36;79.25;103136.38;5080884;27;45583;-70
2023/12/18 05:48:15;;;;;;;;;15.50;12.75;;;;;6.37;79.34;103132.00;5080864;28;45456;-70
2023/12/18 05:50:40;;;;;;;;;14.75;13.75;;;;;6.40;78.83;103137.34;5080509;28;45379;-70
2023/12/18 05:53:05;;;;;;;;;20.00;16.00;;;;;6.53;78.57;103158.00;5080042;27;45556;-69
2023/12/18 05:55:31;;;;;;;;;11.00;10.50;;;;;6.48;78.56;103146.38;5079682;28;46496;-70
2023/12/18 05:57:56;;;;;;;;;15.00;11.25;;;;;6.59;79.14;103152.84;5080109;27;45586;-70
2023/12/18 06:00:22;;;;;;;;;15.00;13.00;;;;;6.44;78.91;103120.66;5080481;27;45588;-70
2023/12/18 06:02:47;;;;;;;;;13.00;11.50;;;;;6.46;79.08;103133.09;5082101;27;45402;-70
2023/12/18 06:05:13;;;;;;;;;8.75;7.50;;;;;6.43;78.20;103127.72;5087698;27;45906;-70
2023/12/18 06:07:40;;;;;;;;;14.00;10.50;;;;;6.57;78.55;103166.97;5075876;28;45457;-70
2023/12/18 06:10:07;;;;;;;;;14.50;11.75;;;;;6.52;78.92;103158.88;5080541;28;45452;-70
2023/12/18 06:12:33;;;;;;;;;20.00;15.00;;;;;6.47;78.89;103158.78;5067892;27;45252;-70
2023/12/18 06:14:58;;;;;;;;;14.75;13.50;;;;;6.38;78.89;103149.69;5064809;27;47354;-70
2023/12/18 06:17:24;;;;;;;;;13.25;11.50;;;;;6.41;78.77;103161.25;5091401;27;45531;-69
2023/12/18 06:19:49;;;;;;;;;14.25;14.00;;;;;6.28;78.57;103141.53;5065855;28;46974;-70
2023/12/18 06:22:14;;;;;;;;;11.00;11.00;;;;;6.41;78.51;103163.03;5078923;28;50211;-70
2023/12/18 06:24:40;;;;;;;;;14.25;11.25;;;;;6.19;78.97;103128.03;5086730;27;45487;-70
2023/12/18 06:27:06;;;;;;;;;18.75;15.00;;;;;6.16;79.19;103138.56;5065277;28;45517;-69
2023/12/18 06:29:31;;;;;;;;;12.00;12.00;;;;;6.13;78.98;103133.19;5080183;28;45505;-70
2023/12/18 06:31:57;;;;;;;;;17.50;16.75;;;;;6.28;78.90;103148.56;5073757;28;45360;-70
2023/12/18 06:34:23;;;;;;;;;15.50;14.75;;;;;6.26;78.65;103158.25;5083096;27;45511;-70
2023/12/18 06:36:48;;;;;;;;;21.75;18.25;;;;;6.17;78.78;103142.13;5079821;27;45445;-70
2023/12/18 06:39:14;;;;;;;;;17.50;12.50;;;;;6.16;79.20;103148.28;5080002;28;46934;-70
2023/12/18 06:41:39;;;;;;;;;16.50;13.50;;;;;6.08;78.48;103141.03;5079692;28;45472;-70
2023/12/18 06:44:05;;;;;;;;;7.00;6.75;;;;;6.17;78.78;103161.59;5079200;28;45437;-70
2023/12/18 06:46:31;;;;;;;;;13.50;12.25;;;;;6.13;78.84;103149.09;5079453;27;45469;-70
2023/12/18 06:48:56;;;;;;;;;14.25;10.00;;;;;6.22;78.69;103172.31;5079192;27;46402;-69
2023/12/18 06:51:22;;;;;;;;;13.75;12.75;;;;;6.21;78.39;103165.19;5091819;27;45331;-70
2023/12/18 06:53:47;;;;;;;;;15.25;13.00;;;;;6.20;78.83;103161.66;5080039;28;45314;-69
2023/12/18 06:56:13;;;;;;;;;11.25;11.25;;;;;6.10;78.70;103154.34;5079261;27;45684;-70
2023/12/18 06:58:39;;;;;;;;;17.00;14.00;;;;;6.21;78.88;103179.34;5077772;27;45323;-69
2023/12/18 07:01:04;;;;;;;;;15.75;13.75;;;;;6.06;78.32;103152.47;5085936;27;45260;-70
2023/12/18 07:03:29;;;;;;;;;14.25;12.75;;;;;6.09;79.09;103153.44;5087049;27;45288;-70
2023/12/18 07:05:55;;;;;;;;;20.75;14.25;;;;;6.18;78.64;103181.97;5079832;27;45627;-70
2023/12/18 07:08:21;;;;;;;;;16.75;11.50;;;;;6.08;78.48;103164.91;5077691;27;45595;-69
2023/12/18 07:10:46;;;;;;;;;19.00;14.25;;;;;5.94;78.85;103159.22;5093198;27;45402;-70
2023/12/18 07:13:12;;;;;;;;;16.75;13.00;;;;;5.89;78.70;103157.31;5088609;27;45691;-72
2023/12/18 07:15:37;;;;;;;;;14.25;11.25;;;;;5.79;79.03;103147.31;5077084;28;45523;-72
2023/12/18 07:18:03;;;;;;;;;18.75;15.75;;;;;5.88;79.04;103168.75;5075527;27;45423;-72
2023/12/18 07:20:29;;;;;;;;;17.50;14.75;;;;;5.82;79.26;103164.19;5078502;27;45383;-71
2023/12/18 07:22:54;;;;;;;;;17.25;16.00;;;;;5.91;78.71;103188.31;5064895;28;46712;-71
2023/12/18 07:25:19;;;;;;;;;15.25;13.50;;;;;5.80;79.12;103176.53;5079099;28;45498;-71
2023/12/18 07:27:45;;;;;;;;;12.50;11.75;;;;;5.84;79.22;103180.16;5067588;28;48048;-69
2023/12/18 07:30:11;;;;;;;;;16.75;14.00;;;;;5.91;78.84;103198.91;5076417;27;45494;-69
2023/12/18 07:32:38;;;;;;;;;18.50;15.00;;;;;5.75;78.98;103160.50;5078922;28;45346;-70
2023/12/18 07:35:04;;;;;;;;;13.25;11.00;;;;;5.92;79.58;103187.44;5065233;28;45290;-69
2023/12/18 07:37:31;;;;;;;;;11.00;11.00;;;;;5.83;78.82;103176.63;5078577;28;46615;-69
2023/12/18 07:39:57;;;;;;;;;10.75;10.75;;;;;6.10;78.79;103224.19;5077626;28;45772;-69
2023/12/18 07:42:23;;;;;;;;;8.75;8.75;;;;;6.06;78.63;103208.16;5083293;27;45476;-69
2023/12/18 07:44:49;;;;;;;;;14.75;11.50;;;;;5.88;78.41;103184.66;5078837;28;45575;-69
2023/12/18 07:47:15;;;;;;;;;13.50;13.50;;;;;5.89;78.39;103184.69;5078531;28;45563;-69
2023/12/18 07:49:40;;;;;;;;;10.75;10.00;;;;;5.91;78.09;103193.63;5077979;27;45695;-69
2023/12/18 07:52:05;;;;;;;;;12.25;10.50;;;;;5.94;78.57;103201.63;5078891;27;45589;-69
2023/12/18 07:54:31;;;;;;;;;13.00;11.00;;;;;5.80;78.49;103192.44;5078684;27;45505;-69
2023/12/18 07:56:57;;;;;;;;;7.50;6.25;;;;;5.85;78.73;103196.09;5073574;27;45450;-68
2023/12/18 07:59:22;;;;;;;;;18.00;13.75;;;;;5.79;78.33;103187.09;5074950;27;45380;-68
2023/12/18 08:01:47;;;;;;;;;18.50;14.00;;;;;5.78;78.51;103193.22;5072342;27;45425;-71
2023/12/18 08:04:13;;;;;;;;;15.25;13.25;;;;;5.77;78.83;103188.81;5078620;28;45694;-71
2023/12/18 08:06:38;;;;;;;;;17.50;13.00;;;;;6.00;78.63;103222.16;5077842;28;45425;-70
2023/12/18 08:09:03;;;;;;;;;12.50;12.50;;;;;5.79;79.04;103192.38;5069601;27;45393;-69
2023/12/18 08:11:29;;;;;;;;;11.00;9.25;;;;;5.82;78.72;103196.00;5081728;27;45335;-69
2023/12/18 08:13:54;;;;;;;;;12.75;11.25;;;;;5.78;79.10;103188.84;5056000;28;45520;-69
2023/12/18 08:16:20;;;;;;;;;16.50;14.75;;;;;5.84;79.16;103194.28;5073587;28;45482;-69
2023/12/18 08:18:46;;;;;;;;;17.50;14.00;;;;;5.93;78.52;103199.84;5073675;27;45378;-69
2023/12/18 08:21:13;;;;;;;;;18.50;16.00;;;;;5.94;78.64;103195.44;5072508;27;45618;-69
2023/12/18 08:23:40;;;;;;;;;14.50;13.00;;;;;5.92;78.05;103187.44;5089465;27;45856;-69
2023/12/18 08:26:05;;;;;;;;;20.50;14.25;;;;;5.81;78.38;103169.47;5080763;28;45555;-69
2023/12/18 08:28:30;;;;;;;;;15.50;12.50;;;;;6.07;78.62;103209.94;5079110;27;46915;-69
2023/12/18 08:30:56;;;;;;;;;17.25;15.50;;;;;5.92;78.40;103191.84;5080820;27;45575;-68
2023/12/18 08:33:21;;;;;;;;;18.25;14.00;;;;;5.88;78.11;103195.25;5069898;27;45317;-69
2023/12/18 08:35:46;;;;;;;;;16.75;15.75;;;;;5.80;78.89;103178.25;5074735;27;46220;-68
2023/12/18 08:38:12;;;;;;;;;15.25;15.25;;;;;5.77;78.62;103176.44;5075514;28;45449;-68
2023/12/18 08:40:37;;;;;;;;;14.75;14.00;;;;;5.98;77.75;103220.31;5076960;28;45309;-68
2023/12/18 08:43:03;;;;;;;;;16.25;13.75;;;;;5.92;78.00;103213.94;5080321;28;45469;-67
2023/12/18 08:45:31;;;;;;;;;16.75;10.75;;;;;5.85;78.49;103214.66;5079940;28;46647;-68
2023/12/18 08:47:59;;;;;;;;;14.25;10.00;;;;;5.65;78.11;103179.66;5078752;27;45581;-71
2023/12/18 08:50:27;;;;;;;;;10.00;10.00;;;;;5.66;77.80;103176.13;5080935;28;45674;-68
2023/12/18 08:52:53;;;;;;;;;14.00;11.00;;;;;5.69;78.32;103180.63;5080586;28;45373;-68
2023/12/18 08:55:19;;;;;;;;;10.75;8.75;;;;;5.75;78.76;103178.16;5078804;27;48139;-67
2023/12/18 08:57:44;;;;;;;;;12.50;12.50;;;;;5.93;78.34;103199.84;5073875;28;45312;-67
2023/12/18 09:00:11;;;;;;;;;13.50;11.00;;;;;5.78;78.73;103165.00;5064844;28;45424;-67
2023/12/18 09:02:36;;;;;;;;;14.75;11.25;;;;;5.96;77.87;103192.81;5068752;28;45398;-67
2023/12/18 09:05:02;;;;;;;;;14.50;11.50;;;;;5.99;77.93;103192.94;5065330;28;45876;-67
2023/12/18 09:07:27;;;;;;;;;14.50;11.75;;;;;5.92;77.40;103198.03;5073645;28;46142;-68
2023/12/18 09:09:52;;;;;;;;;20.25;13.50;;;;;5.62;77.43;103150.44;5039830;28;46768;-69
2023/12/18 09:12:18;;;;;;;;;15.75;14.75;;;;;5.67;78.18;103161.16;5060833;28;45394;-68
2023/12/18 09:14:43;;;;;;;;;18.75;15.25;;;;;5.70;77.85;103163.88;5062750;28;51704;-68
2023/12/18 09:17:08;;;;;;;;;14.25;12.75;;;;;5.93;77.98;103193.63;5056867;28;45580;-68
2023/12/18 09:19:34;;;;;;;;;11.25;11.25;;;;;5.96;77.70;103204.34;5041648;28;45477;-68
2023/12/18 09:21:59;;;;;;;;;14.75;14.00;;;;;5.93;77.49;103205.16;5064227;28;45465;-68
2023/12/18 09:24:25;;;;;;;;;16.25;14.50;;;;;5.80;77.06;103178.25;5060033;28;51359;-68
2023/12/18 09:26:51;;;;;;;;;16.25;14.75;;;;;5.72;77.21;103154.22;5057309;28;45550;-68
2023/12/18 09:29:16;;;;;;;;;15.00;13.50;;;;;5.78;77.76;103166.72;5058237;28;46864;-69
2023/12/18 09:31:41;;;;;;;;;13.75;10.50;;;;;5.88;77.25;103190.88;5052053;28;46411;-68
2023/12/18 09:34:07;;;;;;;;;10.25;10.25;;;;;5.89;77.35;103194.41;5034834;28;47501;-68
2023/12/18 09:36:32;;;;;;;;;12.75;11.00;;;;;5.67;77.88;103154.09;5057131;28;45383;-68
2023/12/18 09:38:58;;;;;;;;;10.75;10.00;;;;;5.71;77.38;103152.41;5032673;28;45555;-68
2023/12/18 09:41:24;;;;;;;;;17.75;13.25;;;;;5.76;76.63;103164.03;5059173;28;45411;-72
2023/12/18 09:43:54;;;;;;;;;18.00;14.50;;;;;5.74;77.34;103176.34;5043076;28;47196;-69
2023/12/18 09:46:24;;;;;;;;;14.75;11.00;;;;;5.93;77.30;103197.19;5045506;28;45777;-72
2023/12/18 09:48:50;;;;;;;;;13.00;13.00;;;;;5.80;77.35;103167.66;5048248;28;45498;-68
2023/12/18 09:51:19;;;;;;;;;13.25;10.00;;;;;5.82;77.38;103168.63;5058480;28;46438;-68
2023/12/18 09:53:46;;;;;;;;;15.75;14.00;;;;;6.09;77.08;103210.88;5051412;28;45605;-68
2023/12/18 09:56:11;;;;;;;;;14.00;13.00;;;;;6.14;77.12;103217.19;5041993;28;45872;-68
2023/12/18 09:58:39;;;;;;;;;19.50;16.25;;;;;5.96;77.21;103187.53;5041548;28;45640;-67
2023/12/18 10:01:05;;;;;;;;;13.75;12.00;;;;;6.08;76.74;103207.34;5069063;27;45896;-67
2023/12/18 10:03:31;;;;;;;;;10.00;10.00;;;;;6.18;76.17;103216.44;5068533;27;46496;-68
2023/12/18 10:05:56;;;;;;;;;17.25;16.00;;;;;6.03;76.63;103206.31;5063883;27;45510;-67
2023/12/18 10:08:21;;;;;;;;;13.00;11.00;;;;;5.96;76.56;103177.84;5065005;27;46622;-67
2023/12/18 10:10:47;;;;;;;;;14.00;14.00;;;;;5.88;76.92;103152.84;5066150;27;45678;-67
2023/12/18 10:13:13;;;;;;;;;17.75;14.00;;;;;5.97;76.25;103169.03;5070199;27;46118;-68
2023/12/18 10:15:42;;;;;;;;;16.50;16.25;;;;;6.01;76.69;103189.47;5075383;27;45879;-67
2023/12/18 10:18:09;;;;;;;;;19.00;16.75;;;;;5.94;76.01;103175.13;5074194;27;45497;-68
2023/12/18 10:20:35;;;;;;;;;19.00;15.75;;;;;5.96;76.05;103179.56;5068292;27;45747;-68
2023/12/18 10:23:00;;;;;;;;;20.00;19.50;;;;;6.01;76.60;103199.19;5075154;28;46476;-68
2023/12/18 10:27:57;;;;;;;;;19.25;14.50;;;;;5.98;76.94;103188.50;5104554;22;68120;-75
2023/12/18 10:30:29;;;;;;;;;18.75;15.00;;;;;6.13;76.65;103188.88;5097375;27;45617;-75
2023/12/18 10:32:55;;;;;;;;;11.50;9.25;;;;;6.16;76.34;103198.69;5088071;27;45516;-75
2023/12/18 10:35:23;;;;;;;;;21.75;16.00;;;;;6.17;76.50;103187.22;5094369;27;45567;-75
2023/12/18 10:37:54;;;;;;;;;20.25;18.00;;;;;6.21;76.15;103192.63;5093954;27;45509;-75
2023/12/18 10:40:22;;;;;;;;;23.00;16.00;;;;;6.14;76.13;103182.72;5078460;27;45447;-76
2023/12/18 10:43:17;;;;;;;;;18.75;11.50;;;;;6.06;76.50;103173.69;5097246;27;47065;-78
2023/12/18 10:45:43;;;;;;;;;18.00;18.00;;;;;6.22;76.52;103199.72;5093976;27;45476;-76
2023/12/18 10:48:10;;;;;;;;;18.00;16.00;;;;;6.15;76.72;103187.19;5097401;27;45454;-76
2023/12/18 10:50:36;;;;;;;;;16.25;15.25;;;;;6.21;76.76;103194.38;5078780;27;45447;-77
2023/12/18 10:53:04;;;;;;;;;19.25;17.00;;;;;6.21;76.90;103187.31;5098717;27;45893;-77
2023/12/18 10:55:30;;;;;;;;;20.50;17.50;;;;;6.24;76.38;103179.44;5099692;27;45289;-77
2023/12/18 10:57:58;;;;;;;;;19.50;18.25;;;;;6.30;76.48;103182.25;5106213;27;45293;-77
2023/12/18 11:00:24;;;;;;;;;19.00;16.25;;;;;6.34;76.32;103184.97;5097094;27;46029;-77
2023/12/18 11:02:51;;;;;;;;;19.50;15.50;;;;;6.38;76.56;103186.84;5096627;27;46147;-77
2023/12/18 11:05:17;;;;;;;;;20.25;15.25;;;;;6.39;76.64;103180.69;5081127;27;45307;-77
2023/12/18 11:07:42;;;;;;;;;16.50;15.25;;;;;6.44;75.92;103182.56;5097714;27;45482;-77
2023/12/18 11:10:08;;;;;;;;;15.75;13.50;;;;;6.40;75.27;103188.69;5078033;27;45778;-77
2023/12/18 11:12:37;;;;;;;;;16.50;14.75;;;;;6.24;75.40;103176.78;5092068;27;46152;-77